Time;durP1;ratioP1;P1;durP2;ratioP2;P2;SDS_P1;SDS_P2;PMS_P1;PMS_P2;Temp;Humidity;BMP_temperature;BMP_pressure;BME280_temperature;BME280_humidity;BME280_pressure;Samples;Min_cycle;Max_cycle;Signal;HPM_P1;HPM_P2
2021/04/13 00:01:24;;;;;;;5.55;4.90;;;2.50;93.00;;;;;;5095280;28;20193;-80
2021/04/13 00:03:55;;;;;;;5.47;5.00;;;2.80;92.40;;;;;;5079781;28;20618;-79
2021/04/13 00:06:26;;;;;;;11.10;4.85;;;2.70;91.40;;;;;;5091174;28;20761;-79
2021/04/13 00:08:56;;;;;;;7.90;5.13;;;2.60;90.70;;;;;;5086747;28;20191;-79
2021/04/13 00:11:25;;;;;;;5.70;5.05;;;2.70;90.80;;;;;;5093525;28;20205;-79
2021/04/13 00:13:53;;;;;;;5.95;5.43;;;2.50;90.90;;;;;;5090872;28;20922;-79
2021/04/13 00:16:21;;;;;;;5.15;4.45;;;2.40;91.40;;;;;;5086949;28;20209;-79
2021/04/13 00:18:51;;;;;;;4.35;3.95;;;2.00;91.80;;;;;;5090219;28;20859;-79
2021/04/13 00:21:23;;;;;;;5.93;4.90;;;1.90;92.80;;;;;;5083896;28;20191;-79
2021/04/13 00:23:50;;;;;;;6.32;4.85;;;1.80;93.60;;;;;;5096030;28;20207;-79
2021/04/13 00:26:24;;;;;;;6.50;5.20;;;1.80;94.00;;;;;;5084090;28;20506;-79
2021/04/13 00:28:52;;;;;;;5.97;4.38;;;1.80;94.40;;;;;;5089482;28;20223;-79
2021/04/13 00:31:38;;;;;;;5.70;4.45;;;2.00;94.50;;;;;;5089494;28;20234;-79
2021/04/13 00:34:06;;;;;;;4.93;4.45;;;2.10;94.10;;;;;;5090495;28;20194;-80
2021/04/13 00:36:33;;;;;;;6.10;5.50;;;2.10;93.40;;;;;;5083267;28;20195;-79
2021/04/13 00:38:59;;;;;;;4.68;4.28;;;2.00;93.40;;;;;;5089349;28;20205;-80
2021/04/13 00:41:29;;;;;;;7.75;5.43;;;1.90;93.40;;;;;;5086833;28;20206;-80
2021/04/13 00:44:01;;;;;;;5.50;4.55;;;1.80;93.80;;;;;;5086748;28;20202;-80
2021/04/13 00:46:33;;;;;;;5.43;4.93;;;1.70;94.20;;;;;;5088882;28;20237;-80
2021/04/13 00:49:02;;;;;;;5.35;4.95;;;1.80;94.20;;;;;;5088397;28;20199;-80
2021/04/13 00:51:36;;;;;;;5.53;4.93;;;1.70;94.10;;;;;;5096283;28;20205;-79
2021/04/13 00:54:15;;;;;;;5.05;4.55;;;1.70;94.30;;;;;;5090313;28;20627;-79
2021/04/13 00:56:43;;;;;;;6.00;4.97;;;1.80;94.50;;;;;;5086163;28;20219;-79
2021/04/13 00:59:13;;;;;;;5.43;5.03;;;1.80;94.50;;;;;;5090045;28;20199;-80
2021/04/13 01:01:43;;;;;;;5.35;4.82;;;1.90;94.70;;;;;;5083389;28;20577;-80
2021/04/13 01:04:15;;;;;;;7.03;5.20;;;2.00;94.70;;;;;;5089628;28;20202;-80
2021/04/13 01:06:44;;;;;;;6.45;5.68;;;1.90;94.70;;;;;;5087426;28;20226;-80
2021/04/13 01:09:19;;;;;;;8.00;5.97;;;1.90;94.90;;;;;;5089061;28;20308;-80
2021/04/13 01:11:54;;;;;;;6.15;5.57;;;2.10;94.60;;;;;;5082366;28;20190;-80
2021/04/13 01:14:24;;;;;;;5.25;4.38;;;2.00;94.40;;;;;;5086983;28;20261;-80
2021/04/13 01:16:56;;;;;;;5.30;4.80;;;2.20;94.40;;;;;;5083809;28;20252;-80
2021/04/13 01:19:40;;;;;;;5.38;4.88;;;2.40;94.20;;;;;;5087772;28;20191;-80
2021/04/13 01:22:20;;;;;;;5.68;5.07;;;2.30;94.30;;;;;;5065706;28;20317;-80
2021/04/13 01:24:51;;;;;;;5.70;5.03;;;2.10;94.20;;;;;;5088606;28;20195;-80
2021/04/13 01:27:23;;;;;;;6.43;4.93;;;2.00;94.10;;;;;;5088301;28;20225;-79
2021/04/13 01:29:52;;;;;;;5.03;4.40;;;2.10;94.30;;;;;;5085481;28;20194;-80
2021/04/13 01:32:23;;;;;;;5.45;4.75;;;2.30;94.10;;;;;;5093120;28;20270;-80
2021/04/13 01:35:06;;;;;;;5.55;4.43;;;2.50;94.00;;;;;;5082697;28;20530;-80
2021/04/13 01:37:50;;;;;;;8.20;5.50;;;2.40;93.70;;;;;;5092126;28;20207;-80
2021/04/13 01:40:26;;;;;;;6.45;5.85;;;2.20;93.90;;;;;;5088160;28;20702;-80
2021/04/13 01:42:56;;;;;;;7.38;6.05;;;2.10;94.30;;;;;;5088998;28;20217;-80
2021/04/13 01:45:28;;;;;;;5.25;4.65;;;1.90;94.60;;;;;;5087189;28;20215;-80
2021/04/13 01:47:57;;;;;;;6.38;5.80;;;1.90;94.80;;;;;;5101639;28;20205;-80
2021/04/13 01:50:28;;;;;;;5.53;4.97;;;1.70;94.50;;;;;;5087846;28;20237;-80
2021/04/13 01:53:03;;;;;;;5.75;5.15;;;1.60;95.10;;;;;;5089048;28;20190;-80
2021/04/13 01:55:33;;;;;;;6.00;5.30;;;1.60;95.50;;;;;;5086850;28;20297;-80
2021/04/13 01:58:10;;;;;;;6.70;6.03;;;1.70;95.40;;;;;;5089975;28;20205;-80
2021/04/13 02:00:44;;;;;;;5.40;4.88;;;1.60;95.00;;;;;;5080701;28;20194;-80
2021/04/13 02:03:15;;;;;;;7.38;6.25;;;1.60;95.40;;;;;;5089965;28;20698;-80
2021/04/13 02:05:48;;;;;;;6.38;5.43;;;1.60;95.40;;;;;;5090340;28;20223;-80
2021/04/13 02:08:22;;;;;;;7.93;6.53;;;1.60;95.20;;;;;;5082554;28;20202;-80
2021/04/13 02:11:01;;;;;;;8.55;6.32;;;1.60;94.80;;;;;;5089697;28;20194;-80
2021/04/13 02:13:33;;;;;;;9.23;6.35;;;1.60;94.60;;;;;;5083980;28;20233;-80
2021/04/13 02:16:05;;;;;;;7.57;6.47;;;1.60;94.30;;;;;;5089847;28;20676;-80
2021/04/13 02:18:37;;;;;;;8.30;6.07;;;1.60;94.40;;;;;;5081843;28;20231;-80
2021/04/13 02:21:09;;;;;;;7.25;6.20;;;1.60;94.30;;;;;;5091728;28;20206;-80
2021/04/13 02:23:40;;;;;;;6.85;5.65;;;1.60;94.40;;;;;;5086396;28;20276;-80
2021/04/13 02:26:07;;;;;;;6.50;5.65;;;1.50;94.60;;;;;;5084307;28;20794;-80
2021/04/13 02:28:36;;;;;;;7.00;5.55;;;1.60;94.60;;;;;;5089075;28;20218;-80
2021/04/13 02:31:07;;;;;;;6.30;5.70;;;1.60;94.40;;;;;;5088024;28;20552;-80
2021/04/13 02:33:36;;;;;;;5.13;4.68;;;1.60;94.10;;;;;;5088047;28;20198;-80
2021/04/13 02:36:10;;;;;;;6.65;5.85;;;1.70;94.10;;;;;;5088500;28;20198;-80
2021/04/13 02:38:38;;;;;;;5.53;5.03;;;1.50;94.60;;;;;;5096489;28;20205;-80
2021/04/13 02:41:14;;;;;;;8.65;5.47;;;1.40;94.70;;;;;;5095715;28;20244;-80
2021/04/13 02:43:48;;;;;;;8.40;6.13;;;1.20;94.70;;;;;;5093103;28;20193;-80
2021/04/13 02:46:19;;;;;;;11.27;6.80;;;1.20;95.40;;;;;;5095611;28;20202;-80
2021/04/13 02:49:02;;;;;;;7.10;6.03;;;1.30;95.40;;;;;;5089463;28;20264;-80
2021/04/13 02:51:30;;;;;;;6.30;5.70;;;1.20;95.50;;;;;;5100151;28;20197;-80
2021/04/13 02:53:58;;;;;;;9.00;6.72;;;1.10;95.30;;;;;;5090054;28;20273;-80
2021/04/13 02:56:29;;;;;;;6.90;5.70;;;1.10;95.50;;;;;;5092496;28;20648;-80
2021/04/13 02:59:07;;;;;;;7.43;6.32;;;1.10;95.50;;;;;;5088293;28;20206;-80
2021/04/13 03:01:34;;;;;;;6.15;5.45;;;1.30;95.40;;;;;;5089022;28;20279;-80
2021/04/13 03:04:08;;;;;;;5.70;5.20;;;1.30;95.50;;;;;;5082892;28;20227;-80
2021/04/13 03:06:38;;;;;;;6.20;5.57;;;1.30;95.50;;;;;;5100854;28;20264;-80
2021/04/13 03:09:06;;;;;;;8.15;6.47;;;1.20;95.70;;;;;;5092491;28;20202;-80
2021/04/13 03:11:35;;;;;;;13.07;6.82;;;1.20;95.70;;;;;;5091479;28;20613;-80
2021/04/13 03:14:05;;;;;;;11.13;5.78;;;1.30;95.80;;;;;;5095886;28;20273;-80
2021/04/13 03:16:35;;;;;;;8.13;6.78;;;1.60;96.30;;;;;;5089088;28;20210;-80
2021/04/13 03:19:04;;;;;;;7.00;6.30;;;1.80;96.00;;;;;;5091825;28;20197;-80
2021/04/13 03:21:34;;;;;;;7.32;6.30;;;1.90;94.70;;;;;;5089871;28;20214;-80
2021/04/13 03:24:04;;;;;;;7.78;6.07;;;2.00;93.90;;;;;;5091932;28;20195;-80
2021/04/13 03:26:35;;;;;;;7.80;5.78;;;2.20;93.50;;;;;;5087112;28;20231;-80
2021/04/13 03:29:07;;;;;;;6.68;6.00;;;2.40;93.30;;;;;;5091206;28;20199;-80
2021/04/13 03:31:36;;;;;;;6.65;5.43;;;2.50;93.00;;;;;;5091029;28;20195;-80
2021/04/13 03:34:04;;;;;;;9.20;7.72;;;2.20;93.10;;;;;;5093968;28;20664;-80
2021/04/13 03:36:31;;;;;;;8.30;7.50;;;2.00;93.20;;;;;;5088089;28;20218;-81
2021/04/13 03:39:02;;;;;;;6.68;5.38;;;1.80;93.50;;;;;;5089823;28;20210;-80
2021/04/13 03:41:32;;;;;;;8.65;6.40;;;1.90;93.80;;;;;;5102309;28;20198;-80
2021/04/13 03:44:01;;;;;;;8.05;5.60;;;1.70;93.20;;;;;;5089316;28;20572;-80
2021/04/13 03:46:33;;;;;;;7.18;5.63;;;1.70;93.90;;;;;;5091102;28;20727;-80
2021/04/13 03:49:02;;;;;;;9.32;6.10;;;1.90;94.20;;;;;;5085119;28;20842;-80
2021/04/13 03:51:31;;;;;;;5.63;4.85;;;2.00;93.80;;;;;;5097443;28;20722;-80
2021/04/13 03:53:58;;;;;;;6.57;5.80;;;1.90;93.20;;;;;;5087455;28;20277;-80
2021/04/13 03:56:27;;;;;;;9.65;7.00;;;1.60;93.40;;;;;;5090716;28;20202;-79
2021/04/13 03:58:56;;;;;;;8.35;6.72;;;1.30;93.60;;;;;;5085844;28;20196;-80
2021/04/13 04:01:26;;;;;;;8.68;6.97;;;1.20;94.50;;;;;;5088421;28;20202;-79
2021/04/13 04:03:55;;;;;;;6.50;5.25;;;1.00;95.30;;;;;;5094319;28;20195;-80
2021/04/13 04:06:38;;;;;;;10.48;6.63;;;0.90;95.90;;;;;;5091595;28;20699;-80
2021/04/13 04:09:17;;;;;;;6.88;6.28;;;1.10;96.20;;;;;;5088252;28;20206;-79
2021/04/13 04:11:44;;;;;;;6.55;5.95;;;1.10;96.00;;;;;;5094747;28;20194;-79
2021/04/13 04:14:15;;;;;;;8.32;5.82;;;1.00;95.60;;;;;;5091212;28;20199;-80
2021/04/13 04:16:42;;;;;;;7.50;6.03;;;1.00;95.60;;;;;;5088947;28;20683;-80
2021/04/13 04:19:19;;;;;;;6.43;5.75;;;0.90;95.60;;;;;;5099230;28;20195;-80
2021/04/13 04:21:56;;;;;;;5.88;5.18;;;1.00;95.70;;;;;;5084464;28;20208;-80
2021/04/13 04:24:28;;;;;;;6.95;5.85;;;1.00;95.50;;;;;;5089210;28;20195;-80
2021/04/13 04:26:57;;;;;;;7.55;5.93;;;1.00;95.40;;;;;;5087321;28;20695;-80
2021/04/13 04:29:37;;;;;;;7.18;5.85;;;1.00;95.20;;;;;;5092413;28;20562;-80
2021/04/13 04:32:14;;;;;;;8.30;7.00;;;0.90;95.00;;;;;;5085313;28;20241;-80
2021/04/13 04:34:52;;;;;;;8.48;7.22;;;0.90;95.30;;;;;;5083323;28;20187;-80
2021/04/13 04:37:31;;;;;;;10.45;7.95;;;0.90;95.30;;;;;;5089490;28;20201;-80
2021/04/13 04:40:21;;;;;;;8.90;6.90;;;0.90;95.50;;;;;;5095804;28;20187;-80
2021/04/13 04:42:53;;;;;;;6.53;5.93;;;1.00;95.50;;;;;;5087655;28;20195;-80
2021/04/13 04:45:32;;;;;;;7.97;6.25;;;1.30;95.60;;;;;;5090975;28;20224;-80
2021/04/13 04:47:59;;;;;;;9.98;6.55;;;1.50;95.30;;;;;;5086988;28;20539;-80
2021/04/13 04:50:26;;;;;;;7.30;6.60;;;1.30;94.70;;;;;;5083456;28;20553;-79
2021/04/13 04:52:55;;;;;;;7.20;6.28;;;1.20;94.60;;;;;;5091524;28;20608;-80
2021/04/13 04:55:21;;;;;;;8.07;6.32;;;1.30;94.90;;;;;;5090039;28;20198;-80
2021/04/13 04:57:48;;;;;;;8.88;6.28;;;1.10;94.90;;;;;;5090305;28;20208;-80
2021/04/13 05:00:15;;;;;;;8.60;5.85;;;1.10;95.00;;;;;;5082180;28;20695;-80
2021/04/13 05:02:41;;;;;;;8.55;5.75;;;1.00;95.10;;;;;;5093842;28;20202;-80
2021/04/13 05:05:09;;;;;;;7.30;5.40;;;1.00;95.30;;;;;;5087959;28;20199;-80
2021/04/13 05:07:36;;;;;;;6.20;5.55;;;1.00;95.40;;;;;;5089855;28;20258;-80
2021/04/13 05:10:03;;;;;;;7.85;6.65;;;1.20;95.50;;;;;;5090335;28;20202;-80
2021/04/13 05:12:29;;;;;;;7.75;6.95;;;1.10;95.00;;;;;;5092830;28;20206;-80
2021/04/13 05:14:56;;;;;;;7.10;6.40;;;1.30;94.90;;;;;;5084492;28;20191;-80
2021/04/13 05:17:22;;;;;;;8.13;7.28;;;1.20;94.90;;;;;;5089876;28;20209;-80
2021/04/13 05:19:48;;;;;;;10.30;8.13;;;1.20;94.80;;;;;;5092763;28;20256;-80
2021/04/13 05:22:15;;;;;;;9.55;7.10;;;1.30;95.00;;;;;;5087858;28;20664;-81
2021/04/13 05:24:44;;;;;;;8.95;6.30;;;1.40;94.90;;;;;;5091085;28;20744;-80
2021/04/13 05:27:10;;;;;;;7.20;6.00;;;1.70;94.90;;;;;;5089002;28;20720;-81
2021/04/13 05:29:37;;;;;;;9.55;6.93;;;1.90;94.20;;;;;;5080958;28;20191;-80
2021/04/13 05:32:03;;;;;;;9.60;7.32;;;2.00;93.70;;;;;;5089073;28;20195;-80
2021/04/13 05:34:30;;;;;;;7.13;5.82;;;2.10;93.30;;;;;;5086987;28;20207;-80
2021/04/13 05:36:56;;;;;;;7.80;7.03;;;2.10;93.00;;;;;;5089736;28;20203;-80
2021/04/13 05:39:24;;;;;;;11.05;7.32;;;1.90;92.90;;;;;;5085024;28;20198;-82
2021/04/13 05:41:58;;;;;;;8.60;6.03;;;1.80;93.10;;;;;;5088669;28;20183;-83
2021/04/13 05:44:25;;;;;;;8.82;7.07;;;1.90;93.20;;;;;;5087270;28;20238;-82
2021/04/13 05:46:55;;;;;;;8.55;7.03;;;2.20;93.30;;;;;;5092244;28;20245;-82
2021/04/13 05:49:21;;;;;;;8.93;7.18;;;2.00;92.50;;;;;;5087801;28;20202;-81
2021/04/13 05:51:48;;;;;;;8.40;6.95;;;2.10;92.60;;;;;;5091437;28;20656;-82
2021/04/13 05:54:14;;;;;;;9.43;7.15;;;2.30;92.60;;;;;;5090240;28;20281;-82
2021/04/13 05:56:43;;;;;;;10.27;7.78;;;2.30;91.80;;;;;;5086723;28;20207;-82
2021/04/13 05:59:15;;;;;;;10.30;7.03;;;2.20;91.90;;;;;;5086449;28;20207;-83
2021/04/13 06:01:48;;;;;;;8.40;6.40;;;2.00;91.80;;;;;;5084891;28;20207;-81
2021/04/13 06:04:15;;;;;;;14.13;8.40;;;2.10;91.80;;;;;;5089685;28;20205;-84
2021/04/13 06:06:41;;;;;;;10.02;7.15;;;2.40;91.90;;;;;;5089617;28;20222;-84
2021/04/13 06:09:08;;;;;;;7.80;6.75;;;2.40;91.30;;;;;;5091070;28;20549;-83
2021/04/13 06:11:35;;;;;;;8.10;7.10;;;2.70;91.40;;;;;;5096538;28;20191;-83
2021/04/13 06:14:04;;;;;;;9.27;7.65;;;2.90;91.20;;;;;;5096509;28;20191;-83
2021/04/13 06:16:35;;;;;;;8.75;6.93;;;3.20;90.90;;;;;;5091867;28;20202;-83
2021/04/13 06:19:02;;;;;;;9.95;8.40;;;3.20;90.10;;;;;;5094190;28;20206;-83
2021/04/13 06:21:29;;;;;;;10.30;7.63;;;3.40;90.30;;;;;;5096962;28;20343;-83
2021/04/13 06:23:56;;;;;;;9.05;7.68;;;3.40;89.60;;;;;;5097747;28;20647;-83
2021/04/13 06:26:23;;;;;;;12.85;9.05;;;3.30;88.60;;;;;;5096245;28;20210;-83
2021/04/13 06:28:50;;;;;;;10.88;8.10;;;3.20;89.30;;;;;;5097501;28;20194;-81
2021/04/13 06:31:16;;;;;;;8.80;7.90;;;3.10;89.50;;;;;;5096049;28;20191;-82
2021/04/13 06:33:44;;;;;;;9.10;7.70;;;2.90;90.30;;;;;;5094329;28;20563;-82
2021/04/13 06:36:16;;;;;;;11.27;8.90;;;2.70;90.30;;;;;;5096183;28;20248;-81
2021/04/13 06:38:45;;;;;;;10.75;8.23;;;2.70;90.60;;;;;;5099105;28;20861;-81
2021/04/13 06:41:46;;;;;;;9.63;7.80;;;2.70;90.40;;;;;;5092183;28;20680;-82
2021/04/13 06:44:32;;;;;;;11.90;9.02;;;2.90;90.70;;;;;;5076721;28;20202;-82
2021/04/13 06:47:06;;;;;;;19.98;10.35;;;3.20;90.80;;;;;;5094003;28;20681;-82
2021/04/13 06:49:57;;;;;;;13.50;9.13;;;3.50;90.50;;;;;;5096164;28;20190;-82
2021/04/13 06:52:34;;;;;;;11.85;8.98;;;3.70;89.20;;;;;;5096023;28;20675;-82
2021/04/13 06:55:14;;;;;;;11.13;9.60;;;3.80;88.30;;;;;;5094419;28;20183;-83
2021/04/13 06:57:58;;;;;;;11.18;9.20;;;3.90;88.10;;;;;;5096176;28;20252;-81
2021/04/13 07:00:46;;;;;;;11.50;9.68;;;4.30;89.10;;;;;;5094835;28;20645;-82
2021/04/13 07:03:23;;;;;;;13.05;10.00;;;4.30;86.70;;;;;;5087916;28;20214;-82
2021/04/13 07:05:56;;;;;;;12.52;9.18;;;4.70;88.10;;;;;;5094694;28;20198;-82
2021/04/13 07:08:31;;;;;;;11.05;9.30;;;5.10;84.80;;;;;;5095395;28;20195;-83
2021/04/13 07:11:04;;;;;;;11.88;9.40;;;5.30;82.80;;;;;;5096748;28;20202;-82
2021/04/13 07:13:38;;;;;;;13.65;9.50;;;5.40;82.80;;;;;;5096204;28;20191;-83
2021/04/13 07:16:15;;;;;;;11.75;10.05;;;5.50;81.70;;;;;;5096949;28;20271;-82
2021/04/13 07:18:46;;;;;;;10.48;8.80;;;5.30;81.40;;;;;;5097925;28;20181;-82
2021/04/13 07:21:23;;;;;;;18.00;10.82;;;5.60;81.80;;;;;;5091905;28;20210;-81
2021/04/13 07:23:55;;;;;;;11.75;9.85;;;5.70;79.80;;;;;;5092272;28;20226;-82
2021/04/13 07:26:30;;;;;;;12.43;8.82;;;5.90;79.90;;;;;;5092168;28;20260;-82
2021/04/13 07:29:03;;;;;;;11.27;10.07;;;5.40;78.20;;;;;;5089457;28;20190;-82
2021/04/13 07:31:37;;;;;;;14.93;11.00;;;4.90;79.50;;;;;;5093822;28;20190;-82
2021/04/13 07:34:03;;;;;;;10.35;8.25;;;4.60;79.80;;;;;;5091495;28;20194;-83
2021/04/13 07:36:40;;;;;;;11.05;9.90;;;4.30;80.70;;;;;;5092294;28;20198;-82
2021/04/13 07:39:08;;;;;;;12.48;9.02;;;4.30;81.80;;;;;;5092792;28;20205;-82
2021/04/13 07:41:41;;;;;;;12.68;10.15;;;4.80;82.70;;;;;;5091886;28;20203;-82
2021/04/13 07:44:12;;;;;;;15.27;7.65;;;5.00;81.70;;;;;;5091737;28;20202;-82
2021/04/13 07:46:47;;;;;;;13.52;10.57;;;5.60;81.10;;;;;;5091380;28;20218;-83
2021/04/13 07:49:16;;;;;;;11.05;9.18;;;5.80;79.60;;;;;;5091302;28;20955;-82
2021/04/13 07:51:56;;;;;;;14.82;9.60;;;6.10;77.90;;;;;;5091563;28;20198;-82
2021/04/13 07:54:41;;;;;;;12.52;10.82;;;6.00;76.50;;;;;;5092375;28;20191;-83
2021/04/13 07:57:27;;;;;;;12.18;10.88;;;6.20;77.90;;;;;;5091810;28;20205;-83
2021/04/13 08:00:08;;;;;;;20.13;9.85;;;6.50;77.60;;;;;;5089554;28;20194;-83
2021/04/13 08:02:37;;;;;;;12.32;9.68;;;6.60;76.30;;;;;;5095057;28;20257;-83
2021/04/13 08:05:09;;;;;;;12.85;9.90;;;6.00;74.80;;;;;;5093165;28;20195;-81
2021/04/13 08:07:41;;;;;;;10.40;8.32;;;5.30;76.50;;;;;;5093829;28;20218;-82
2021/04/13 08:10:35;;;;;;;12.45;9.20;;;4.70;77.00;;;;;;5093549;28;20594;-83
2021/04/13 08:13:06;;;;;;;11.05;9.05;;;4.20;81.30;;;;;;5092428;28;20241;-83
2021/04/13 08:15:51;;;;;;;13.10;10.23;;;4.00;84.90;;;;;;5091608;28;20194;-83
2021/04/13 08:21:30;;;;;;;12.65;10.55;;;3.90;90.50;;;;;;5091224;28;20190;-84
2021/04/13 08:23:59;;;;;;;14.77;11.57;;;4.20;91.90;;;;;;5090238;28;20194;-82
2021/04/13 08:26:49;;;;;;;15.23;11.93;;;4.00;92.20;;;;;;5092297;28;20219;-84
2021/04/13 08:29:39;;;;;;;15.75;11.52;;;3.90;92.70;;;;;;5089658;28;20195;-84
2021/04/13 08:35:15;;;;;;;14.02;9.60;;;4.00;92.50;;;;;;5091794;28;20256;-82
2021/04/13 08:37:53;;;;;;;11.05;9.00;;;3.90;92.00;;;;;;5092720;28;20297;-82
2021/04/13 08:40:32;;;;;;;9.68;8.00;;;4.00;93.00;;;;;;5088290;28;20209;-83
2021/04/13 08:43:10;;;;;;;9.90;8.20;;;3.80;91.90;;;;;;5086202;28;20252;-83
2021/04/13 08:45:40;;;;;;;11.48;8.23;;;3.80;92.30;;;;;;5089967;28;20198;-83
2021/04/13 08:48:17;;;;;;;9.38;7.90;;;3.80;91.60;;;;;;5090787;28;20210;-84
2021/04/13 08:50:48;;;;;;;9.80;8.07;;;3.80;91.60;;;;;;5092929;28;20202;-83
2021/04/13 08:53:30;;;;;;;10.82;8.48;;;3.90;91.60;;;;;;5091460;28;20199;-84
2021/04/13 08:56:22;;;;;;;15.60;10.40;;;3.80;91.20;;;;;;5091519;28;20237;-84
2021/04/13 08:58:52;;;;;;;14.00;10.68;;;3.80;91.70;;;;;;5079035;28;20683;-84
2021/04/13 09:01:26;;;;;;;13.52;9.75;;;3.80;91.90;;;;;;5093962;28;20213;-84
2021/04/13 09:03:53;;;;;;;15.23;11.00;;;3.70;91.90;;;;;;5090666;28;20213;-84
2021/04/13 09:06:26;;;;;;;14.38;11.07;;;3.80;92.50;;;;;;5090744;28;20218;-83
2021/04/13 09:08:59;;;;;;;17.83;11.73;;;3.80;92.20;;;;;;5089909;28;20676;-82
2021/04/13 09:11:30;;;;;;;17.13;10.75;;;4.00;92.20;;;;;;5092803;28;20195;-82
2021/04/13 09:14:16;;;;;;;14.98;11.77;;;3.90;91.90;;;;;;5090637;28;20198;-83
2021/04/13 09:16:55;;;;;;;14.63;10.15;;;4.50;92.00;;;;;;5090073;28;20210;-82
2021/04/13 09:19:27;;;;;;;16.45;12.55;;;5.00;91.00;;;;;;5087997;28;20273;-83
2021/04/13 09:21:53;;;;;;;14.93;10.45;;;5.40;89.40;;;;;;5093423;28;20202;-83
2021/04/13 09:24:35;;;;;;;15.65;10.30;;;5.90;88.80;;;;;;5090703;28;20264;-83
2021/04/13 09:27:24;;;;;;;17.70;12.38;;;6.00;85.60;;;;;;5092621;28;20699;-83
2021/04/13 09:29:54;;;;;;;12.68;11.27;;;6.20;85.00;;;;;;5087733;28;20729;-83
2021/04/13 09:32:37;;;;;;;12.52;10.55;;;6.10;79.50;;;;;;5090580;28;20194;-83
2021/04/13 09:35:29;;;;;;;12.00;10.82;;;5.40;80.10;;;;;;5094998;28;20209;-83
2021/04/13 09:38:03;;;;;;;12.45;9.77;;;5.60;81.50;;;;;;5110112;28;20198;-82
2021/04/13 09:40:39;;;;;;;13.00;10.68;;;5.30;82.20;;;;;;5103013;28;20210;-83
2021/04/13 09:43:19;;;;;;;11.18;9.70;;;5.50;81.90;;;;;;5087242;28;20202;-83
2021/04/13 09:46:05;;;;;;;11.18;9.95;;;5.70;80.60;;;;;;5094962;28;20225;-84
2021/04/13 09:49:07;;;;;;;13.65;10.00;;;6.20;79.80;;;;;;5090529;28;20203;-83
2021/04/13 09:51:59;;;;;;;9.68;8.68;;;6.30;76.60;;;;;;5101202;28;20683;-82
2021/04/13 09:54:32;;;;;;;11.60;9.65;;;6.80;76.70;;;;;;5104701;28;20203;-83
2021/04/13 09:57:36;;;;;;;7.45;6.78;;;6.60;72.50;;;;;;5090686;28;20209;-82
2021/04/13 10:00:56;;;;;;;9.40;8.35;;;6.30;66.70;;;;;;5086484;28;20212;-82
2021/04/13 10:03:57;;;;;;;8.73;7.65;;;6.40;71.00;;;;;;5091199;28;20716;-82
2021/04/13 10:06:29;;;;;;;8.35;7.10;;;6.90;67.20;;;;;;5082654;28;20276;-82
2021/04/13 10:09:04;;;;;;;8.25;7.45;;;7.00;64.90;;;;;;5089440;28;20205;-83
2021/04/13 10:11:56;;;;;;;9.15;8.18;;;6.90;64.80;;;;;;5085936;28;20694;-82
2021/04/13 10:15:01;;;;;;;9.18;8.10;;;7.00;67.00;;;;;;5087877;28;20651;-83
2021/04/13 10:17:40;;;;;;;8.73;7.75;;;7.20;64.90;;;;;;5084168;28;20226;-82
2021/04/13 10:20:20;;;;;;;9.48;8.48;;;7.50;59.70;;;;;;5090218;28;20206;-83
2021/04/13 10:23:04;;;;;;;9.15;8.25;;;8.20;60.70;;;;;;5083891;28;20210;-82
2021/04/13 10:26:11;;;;;;;8.45;7.43;;;8.60;59.80;;;;;;5092858;28;20606;-82
2021/04/13 10:29:13;;;;;;;9.30;8.15;;;8.50;58.50;;;;;;5078320;28;20198;-83
2021/04/13 10:32:15;;;;;;;8.02;7.22;;;8.10;59.60;;;;;;5081984;28;20202;-82
2021/04/13 10:35:32;;;;;;;11.35;7.32;;;7.00;60.00;;;;;;5088149;28;20201;-82
2021/04/13 10:38:50;;;;;;;9.90;7.35;;;7.50;61.60;;;;;;5087888;28;20675;-83
2021/04/13 10:42:01;;;;;;;7.85;6.32;;;7.60;60.20;;;;;;5064754;28;20571;-82
2021/04/13 10:45:06;;;;;;;7.35;6.65;;;6.80;57.40;;;;;;5055856;28;20273;-83
2021/04/13 10:48:23;;;;;;;11.15;7.68;;;6.40;58.20;;;;;;5089497;28;20753;-83
2021/04/13 10:51:28;;;;;;;7.22;6.32;;;7.00;59.70;;;;;;5079936;28;20617;-84
2021/04/13 10:54:28;;;;;;;9.15;7.38;;;7.60;58.90;;;;;;5071598;28;20996;-83
2021/04/13 10:57:27;;;;;;;10.00;7.07;;;7.80;58.20;;;;;;5092504;28;20195;-84
2021/04/13 11:00:09;;;;;;;7.75;6.82;;;7.30;56.40;;;;;;5097816;28;20191;-83
2021/04/13 11:03:15;;;;;;;7.20;6.47;;;7.50;58.10;;;;;;5097708;28;20214;-83
2021/04/13 11:06:05;;;;;;;7.50;6.70;;;7.70;57.40;;;;;;5089064;28;20198;-82
2021/04/13 11:08:58;;;;;;;6.80;6.15;;;8.00;57.30;;;;;;5091889;28;20207;-82
2021/04/13 11:11:53;;;;;;;7.65;6.95;;;8.10;54.50;;;;;;5093584;28;20202;-82
2021/04/13 11:14:59;;;;;;;8.20;5.90;;;8.70;56.20;;;;;;5092818;28;20202;-83
2021/04/13 11:17:57;;;;;;;6.93;6.22;;;8.90;52.70;;;;;;5096028;28;20206;-82
2021/04/13 11:20:44;;;;;;;8.55;6.55;;;9.20;53.00;;;;;;5091738;28;20205;-84
2021/04/13 11:23:52;;;;;;;7.57;6.30;;;9.40;51.00;;;;;;5092154;28;20252;-83
2021/04/13 11:27:04;;;;;;;7.00;6.40;;;9.80;49.70;;;;;;5062377;28;20230;-83
2021/04/13 11:30:09;;;;;;;7.05;6.35;;;10.40;48.50;;;;;;5090102;28;20210;-85
2021/04/13 11:33:17;;;;;;;7.83;7.03;;;11.20;46.10;;;;;;5095462;28;20212;-84
2021/04/13 11:35:50;;;;;;;7.10;6.50;;;11.90;48.70;;;;;;5072175;28;20981;-84
2021/04/13 11:38:48;;;;;;;10.30;6.23;;;12.80;44.30;;;;;;5092750;28;20625;-85
2021/04/13 11:41:48;;;;;;;9.33;6.57;;;13.60;43.50;;;;;;5095647;28;20625;-85
2021/04/13 11:44:35;;;;;;;5.30;4.80;;;15.10;42.60;;;;;;5091232;28;20647;-85
2021/04/13 11:47:12;;;;;;;5.13;4.73;;;16.30;37.70;;;;;;5092982;28;20989;-85
2021/04/13 11:49:47;;;;;;;5.67;5.17;;;15.90;37.10;;;;;;5086112;28;20685;-86
2021/04/13 11:52:30;;;;;;;6.43;5.60;;;16.90;35.20;;;;;;5094258;28;20680;-86
2021/04/13 11:54:57;;;;;;;4.57;4.17;;;18.00;33.10;;;;;;5092687;28;20605;-85
2021/04/13 11:57:24;;;;;;;5.80;5.40;;;20.20;32.10;;;;;;5090894;28;20605;-85
2021/04/13 12:00:26;;;;;;;6.90;6.27;;;22.10;32.30;;;;;;5087590;28;20633;-84
2021/04/13 12:03:10;;;;;;;7.00;6.40;;;19.30;30.20;;;;;;5090323;28;20638;-84
2021/04/13 12:05:45;;;;;;;6.23;5.63;;;21.20;29.50;;;;;;5092272;28;20726;-85
2021/04/13 12:08:38;;;;;;;6.30;5.70;;;25.20;28.60;;;;;;5090962;28;20792;-86
2021/04/13 12:11:07;;;;;;;6.30;5.70;;;27.50;26.70;;;;;;5089577;28;20628;-85
2021/04/13 12:13:49;;;;;;;6.77;6.23;;;28.50;25.30;;;;;;5092562;28;20987;-83
2021/04/13 12:16:18;;;;;;;6.53;5.93;;;19.30;26.00;;;;;;5089583;28;20632;-84
2021/04/13 12:19:08;;;;;;;6.30;5.80;;;14.30;30.40;;;;;;5093467;28;20616;-83
2021/04/13 12:21:44;;;;;;;6.43;5.70;;;11.50;35.50;;;;;;5089477;28;20617;-83
2021/04/13 12:24:50;;;;;;;6.63;5.93;;;10.00;38.50;;;;;;5093768;28;20676;-84
2021/04/13 12:27:56;;;;;;;7.50;5.93;;;9.90;41.90;;;;;;5094127;28;20636;-84
2021/04/13 12:31:14;;;;;;;7.20;6.50;;;10.10;41.50;;;;;;5068271;28;20655;-85
2021/04/13 12:34:08;;;;;;;5.97;5.47;;;10.00;42.20;;;;;;5092943;28;20617;-85
2021/04/13 12:36:57;;;;;;;6.10;5.27;;;10.00;40.50;;;;;;5091220;28;20708;-85
2021/04/13 12:39:55;;;;;;;4.83;4.37;;;10.10;40.10;;;;;;5091162;28;21232;-85
2021/04/13 12:42:44;;;;;;;5.77;5.17;;;11.00;39.10;;;;;;5089327;28;21159;-85
2021/04/13 12:45:28;;;;;;;5.40;4.57;;;14.10;37.90;;;;;;5088752;28;20686;-84
2021/04/13 12:47:58;;;;;;;6.23;5.33;;;18.20;33.10;;;;;;5090713;28;20738;-86
2021/04/13 12:50:27;;;;;;;6.20;5.60;;;19.90;28.80;;;;;;5090837;28;21223;-86
2021/04/13 12:52:54;;;;;;;5.57;5.07;;;16.60;29.00;;;;;;5090346;28;20621;-86
2021/04/13 12:55:22;;;;;;;5.70;5.20;;;15.10;31.40;;;;;;5090337;28;20632;-86
2021/04/13 12:57:55;;;;;;;5.17;4.67;;;13.80;32.50;;;;;;5087660;28;20707;-85
2021/04/13 13:00:29;;;;;;;5.40;5.00;;;16.30;32.40;;;;;;5089576;28;21066;-86
2021/04/13 13:03:22;;;;;;;5.93;5.43;;;18.80;29.60;;;;;;5087800;28;20639;-87
2021/04/13 13:05:50;;;;;;;5.70;5.20;;;22.20;29.50;;;;;;5092310;28;20631;-87
2021/04/13 13:08:19;;;;;;;4.83;4.43;;;21.30;27.70;;;;;;5090246;28;20656;-85
2021/04/13 13:10:50;;;;;;;4.87;4.47;;;19.10;28.90;;;;;;5092644;28;20659;-85
2021/04/13 13:13:32;;;;;;;4.40;3.83;;;17.10;30.50;;;;;;5091752;28;20622;-87
2021/04/13 13:16:10;;;;;;;4.30;3.90;;;15.60;30.00;;;;;;5089283;28;21169;-85
2021/04/13 13:18:42;;;;;;;5.60;4.83;;;14.40;30.00;;;;;;5090037;28;20619;-86
2021/04/13 13:21:14;;;;;;;5.00;4.30;;;13.00;32.60;;;;;;5091551;28;21136;-85
2021/04/13 13:23:42;;;;;;;4.93;4.50;;;12.10;32.90;;;;;;5090102;28;21138;-85
2021/04/13 13:26:14;;;;;;;6.10;5.13;;;11.60;36.00;;;;;;5090324;28;20624;-85
2021/04/13 13:28:44;;;;;;;6.63;6.00;;;11.20;37.70;;;;;;5088054;28;20625;-84
2021/04/13 13:31:18;;;;;;;5.47;4.97;;;10.80;40.00;;;;;;5087151;28;20628;-84
2021/04/13 13:33:46;;;;;;;6.97;5.33;;;10.30;40.60;;;;;;5092376;28;20621;-85
2021/04/13 13:36:14;;;;;;;5.85;5.00;;;9.70;42.50;;;;;;5089483;28;20727;-84
2021/04/13 13:38:43;;;;;;;6.80;5.50;;;9.00;43.30;;;;;;5090105;28;20590;-83
2021/04/13 13:41:12;;;;;;;4.28;3.85;;;8.80;45.00;;;;;;5086392;28;20199;-85
2021/04/13 13:43:38;;;;;;;4.50;4.10;;;7.60;44.20;;;;;;5088854;28;20205;-84
2021/04/13 13:46:30;;;;;;;6.20;4.78;;;7.30;48.20;;;;;;5089622;28;20672;-84
2021/04/13 13:49:13;;;;;;;4.78;4.30;;;6.80;50.00;;;;;;5084125;28;20199;-84